createdAt,value
2022-12-01T00:00:28.265Z,3.60
2022-12-01T00:02:54.875Z,3.60
2022-12-01T00:05:21.487Z,3.60
2022-12-01T00:07:48.736Z,3.60
2022-12-01T00:10:28.344Z,3.60
2022-12-01T00:12:55.765Z,3.60
2022-12-01T00:15:22.837Z,3.70
2022-12-01T00:17:49.568Z,3.70
2022-12-01T00:20:16.837Z,3.60
2022-12-01T00:22:44.444Z,3.50
2022-12-01T00:25:11.401Z,3.40
2022-12-01T00:27:37.920Z,3.20
2022-12-01T00:30:05.664Z,3.10
2022-12-01T00:32:32.190Z,3.00
2022-12-01T00:34:58.819Z,2.90
2022-12-01T00:37:25.480Z,2.80
2022-12-01T00:39:52.070Z,2.70
2022-12-01T00:42:20.767Z,2.60
2022-12-01T00:44:47.733Z,2.50
2022-12-01T00:47:14.372Z,2.40
2022-12-01T00:49:40.935Z,2.40
2022-12-01T00:52:07.779Z,2.30
2022-12-01T00:54:34.317Z,2.20
2022-12-01T00:57:00.880Z,2.20
2022-12-01T00:59:27.400Z,2.20
2022-12-01T01:01:53.986Z,2.10
2022-12-01T01:04:20.570Z,2.10
2022-12-01T01:06:47.077Z,2.00
2022-12-01T01:09:14.207Z,2.00
2022-12-01T01:11:40.962Z,2.00
2022-12-01T01:14:07.568Z,2.00
2022-12-01T01:16:34.206Z,2.00
2022-12-01T01:19:01.094Z,1.90
2022-12-01T01:21:28.230Z,1.90
2022-12-01T01:23:55.077Z,1.80
2022-12-01T01:26:25.470Z,1.80
2022-12-01T01:28:52.225Z,1.80
2022-12-01T01:31:23.275Z,1.70
2022-12-01T01:33:50.180Z,1.60
2022-12-01T01:36:17.284Z,1.50
2022-12-01T01:38:44.114Z,1.50
2022-12-01T01:41:11.152Z,1.50
2022-12-01T01:43:42.296Z,1.50
2022-12-01T01:46:14.853Z,1.40
2022-12-01T01:48:42.520Z,1.30
2022-12-01T01:51:11.262Z,1.30
2022-12-01T01:53:37.865Z,1.30
2022-12-01T01:56:04.925Z,1.20
2022-12-01T01:58:32.242Z,1.10
2022-12-01T02:00:58.829Z,1.10
2022-12-01T02:03:26.294Z,1.10
2022-12-01T02:05:52.910Z,1.20
2022-12-01T02:08:19.452Z,1.30
2022-12-01T02:11:12.697Z,1.30
2022-12-01T02:13:45.373Z,1.20
2022-12-01T02:16:21.921Z,1.10
2022-12-01T02:18:53.415Z,1.00
2022-12-01T02:21:22.934Z,0.90
2022-12-01T02:23:52.467Z,1.00
2022-12-01T02:26:33.629Z,1.00
2022-12-01T02:29:16.226Z,1.30
2022-12-01T02:31:42.781Z,1.40
2022-12-01T02:34:27.710Z,1.60
2022-12-01T02:36:58.035Z,1.70
2022-12-01T02:39:35.724Z,1.70
2022-12-01T02:42:05.673Z,1.90
2022-12-01T02:44:34.845Z,2.00
2022-12-01T02:47:12.768Z,2.00
2022-12-01T02:49:41.957Z,2.00
2022-12-01T02:52:10.149Z,2.00
2022-12-01T02:54:37.369Z,2.00
2022-12-01T02:57:04.143Z,2.00
2022-12-01T02:59:30.676Z,2.00
2022-12-01T03:02:00.282Z,2.10
2022-12-01T03:04:44.365Z,2.20
2022-12-01T03:07:16.794Z,2.10
2022-12-01T03:09:52.377Z,2.20
2022-12-01T03:12:25.009Z,2.20
2022-12-01T03:14:57.280Z,2.20
2022-12-01T03:17:27.434Z,2.30
2022-12-01T03:19:56.101Z,2.30
2022-12-01T03:22:28.669Z,2.30
2022-12-01T03:24:55.972Z,2.30
2022-12-01T03:27:24.113Z,2.20
2022-12-01T03:29:52.325Z,2.30
2022-12-01T03:32:22.884Z,2.30
2022-12-01T03:34:54.808Z,2.20
2022-12-01T03:37:27.634Z,2.20
2022-12-01T03:40:00.231Z,2.20
2022-12-01T03:42:30.226Z,2.10
2022-12-01T03:44:58.909Z,2.20
2022-12-01T03:47:29.478Z,2.20
2022-12-01T03:49:56.402Z,2.30
2022-12-01T03:52:30.053Z,2.30
2022-12-01T03:55:14.919Z,2.30
2022-12-01T03:57:44.699Z,2.30
2022-12-01T04:00:11.571Z,2.30
2022-12-01T04:02:38.372Z,2.30
2022-12-01T04:05:05.370Z,2.40
2022-12-01T04:07:31.971Z,2.40
2022-12-01T04:09:58.612Z,2.30
2022-12-01T04:12:32.806Z,2.30
2022-12-01T04:15:00.606Z,2.30
2022-12-01T04:17:27.668Z,2.30
2022-12-01T04:19:54.370Z,2.40
2022-12-01T04:22:21.483Z,2.50
2022-12-01T04:24:48.038Z,2.30
2022-12-01T04:27:14.802Z,2.20
2022-12-01T04:29:41.351Z,2.20
2022-12-01T04:32:07.962Z,2.20
2022-12-01T04:34:34.494Z,2.20
2022-12-01T04:37:01.079Z,2.20
2022-12-01T04:39:27.641Z,2.30
2022-12-01T04:41:54.210Z,2.30
2022-12-01T04:44:20.870Z,2.30
2022-12-01T04:46:47.517Z,2.30
2022-12-01T04:49:14.131Z,2.20
2022-12-01T04:51:40.652Z,2.20
2022-12-01T04:54:07.400Z,2.20
2022-12-01T04:56:33.964Z,2.20
2022-12-01T04:59:00.851Z,2.30
2022-12-01T05:01:27.884Z,2.40
2022-12-01T05:03:54.690Z,2.30
2022-12-01T05:06:22.828Z,2.30
2022-12-01T05:08:49.954Z,2.30
2022-12-01T05:11:16.937Z,2.30
2022-12-01T05:13:44.536Z,2.30
2022-12-01T05:16:11.150Z,2.20
2022-12-01T05:18:37.973Z,2.30
2022-12-01T05:21:05.196Z,2.30
2022-12-01T05:23:32.956Z,2.30
2022-12-01T05:25:59.844Z,2.40
2022-12-01T05:28:26.886Z,2.30
2022-12-01T05:30:54.268Z,2.30
2022-12-01T05:33:23.257Z,2.20
2022-12-01T05:35:50.294Z,2.20
2022-12-01T05:38:17.184Z,2.20
2022-12-01T05:40:49.252Z,2.20
2022-12-01T05:43:15.807Z,2.30
2022-12-01T05:45:42.419Z,2.30
2022-12-01T05:48:09.104Z,2.30
2022-12-01T05:50:38.446Z,2.30
2022-12-01T05:53:05.461Z,2.30
2022-12-01T05:55:34.864Z,2.30
2022-12-01T05:58:02.019Z,2.30
2022-12-01T06:00:28.605Z,2.20
2022-12-01T06:02:55.121Z,2.20
2022-12-01T06:05:21.746Z,2.20
2022-12-01T06:07:48.362Z,2.30
2022-12-01T06:10:15.014Z,2.20
2022-12-01T06:12:41.577Z,2.20
2022-12-01T06:15:08.549Z,2.20
2022-12-01T06:17:39.907Z,2.10
2022-12-01T06:20:07.445Z,2.00
2022-12-01T06:22:34.028Z,2.10
2022-12-01T06:25:00.546Z,2.10
2022-12-01T06:27:27.076Z,2.10
2022-12-01T06:29:53.794Z,2.20
2022-12-01T06:32:20.506Z,2.20
2022-12-01T06:34:47.154Z,2.20
2022-12-01T06:37:15.596Z,2.20
2022-12-01T06:39:42.421Z,2.30
2022-12-01T06:42:09.104Z,2.30
2022-12-01T06:44:35.657Z,2.30
2022-12-01T06:47:02.296Z,2.40
2022-12-01T06:49:29.024Z,2.50
2022-12-01T06:51:55.585Z,2.50
2022-12-01T06:54:22.176Z,2.40
2022-12-01T06:56:48.832Z,2.30
2022-12-01T06:59:15.611Z,2.30
2022-12-01T07:01:42.548Z,2.30
2022-12-01T07:04:09.136Z,2.20
2022-12-01T07:06:35.672Z,2.20
2022-12-01T07:09:02.205Z,2.30
2022-12-01T07:11:32.182Z,2.20
2022-12-01T07:13:58.852Z,2.20
2022-12-01T07:16:25.589Z,2.20
2022-12-01T07:18:52.832Z,2.20
2022-12-01T07:21:19.407Z,2.30
2022-12-01T07:23:45.970Z,2.30
2022-12-01T07:26:17.298Z,2.20
2022-12-01T07:28:44.651Z,2.20
2022-12-01T07:31:12.405Z,2.20
2022-12-01T07:33:39.263Z,2.30
2022-12-01T07:36:06.099Z,2.30
2022-12-01T07:38:32.922Z,2.30
2022-12-01T07:41:06.354Z,2.30
2022-12-01T07:43:33.151Z,2.30
2022-12-01T07:46:23.177Z,2.20
2022-12-01T07:48:50.735Z,2.20
2022-12-01T07:51:17.327Z,2.10
2022-12-01T07:53:44.388Z,2.20
2022-12-01T07:56:11.226Z,2.20
2022-12-01T07:58:37.852Z,2.30
2022-12-01T08:01:12.475Z,2.30
2022-12-01T08:03:39.321Z,2.30
2022-12-01T08:06:06.403Z,2.40
2022-12-01T08:08:33.861Z,2.40
2022-12-01T08:11:01.773Z,2.40
2022-12-01T08:13:28.305Z,2.40
2022-12-01T08:15:54.934Z,2.40
2022-12-01T08:18:21.658Z,2.50
2022-12-01T08:20:48.492Z,2.50
2022-12-01T08:23:15.013Z,2.50
2022-12-01T08:25:41.537Z,2.50
2022-12-01T08:28:08.104Z,2.40
2022-12-01T08:30:35.868Z,2.40
2022-12-01T08:33:02.412Z,2.30
2022-12-01T08:35:28.950Z,2.30
2022-12-01T08:37:55.514Z,2.40
2022-12-01T08:40:22.226Z,2.30
2022-12-01T08:42:48.749Z,2.30
2022-12-01T08:45:15.322Z,2.30
2022-12-01T08:47:41.941Z,2.40
2022-12-01T08:50:08.671Z,2.50
2022-12-01T08:52:35.196Z,2.50
2022-12-01T08:55:01.812Z,2.60
2022-12-01T08:57:31.946Z,2.70
2022-12-01T08:59:58.472Z,2.80
2022-12-01T09:02:25.349Z,2.70
2022-12-01T09:04:52.041Z,2.70
2022-12-01T09:07:24.470Z,2.70
2022-12-01T09:09:52.936Z,2.80
2022-12-01T09:12:19.730Z,2.80
2022-12-01T09:14:48.161Z,2.70
2022-12-01T09:17:15.623Z,2.70
2022-12-01T09:19:42.524Z,2.80
2022-12-01T09:22:09.578Z,2.80
2022-12-01T09:24:36.215Z,2.80
2022-12-01T09:27:03.445Z,2.80
2022-12-01T09:29:30.679Z,2.80
2022-12-01T09:31:58.010Z,2.70
2022-12-01T09:34:24.900Z,2.70
2022-12-01T09:36:54.262Z,2.80
2022-12-01T09:39:21.317Z,2.80
2022-12-01T09:41:50.958Z,2.80
2022-12-01T09:44:36.310Z,2.80
2022-12-01T09:47:05.969Z,2.80
2022-12-01T09:49:39.701Z,2.80
2022-12-01T09:52:10.487Z,2.80
2022-12-01T09:54:37.036Z,2.90
2022-12-01T09:57:03.610Z,3.00
2022-12-01T09:59:37.599Z,2.90
2022-12-01T10:02:11.578Z,2.90
2022-12-01T10:04:41.634Z,2.90
2022-12-01T10:07:20.128Z,3.10
2022-12-01T10:09:53.168Z,3.10
2022-12-01T10:12:22.468Z,3.00
2022-12-01T10:14:49.026Z,3.10
2022-12-01T10:17:21.065Z,3.20
2022-12-01T10:20:06.394Z,3.20
2022-12-01T10:22:42.048Z,3.20
2022-12-01T10:25:22.865Z,3.20
2022-12-01T10:28:08.323Z,3.10
2022-12-01T10:30:39.332Z,3.10
2022-12-01T10:33:17.180Z,3.20
2022-12-01T10:35:43.776Z,3.20
2022-12-01T10:38:13.758Z,3.40
2022-12-01T10:40:41.247Z,3.40
2022-12-01T10:43:09.738Z,3.40
2022-12-01T10:45:40.459Z,3.30
2022-12-01T10:48:17.617Z,3.20
2022-12-01T10:50:45.456Z,3.40
2022-12-01T10:53:24.275Z,3.40
2022-12-01T10:55:52.154Z,3.30
2022-12-01T10:58:19.300Z,3.30
2022-12-01T11:01:02.411Z,3.30
2022-12-01T11:03:31.537Z,3.20
2022-12-01T11:05:59.724Z,3.20
2022-12-01T11:08:29.317Z,3.40
2022-12-01T11:10:56.593Z,3.30
2022-12-01T11:13:24.923Z,3.20
2022-12-01T11:15:53.222Z,3.20
2022-12-01T11:18:23.591Z,3.20
2022-12-01T11:21:07.401Z,3.20
2022-12-01T11:23:38.419Z,3.20
2022-12-01T11:26:07.985Z,3.20
2022-12-01T11:28:34.982Z,3.20
2022-12-01T11:31:03.684Z,3.20
2022-12-01T11:33:31.396Z,3.30
2022-12-01T11:35:58.072Z,3.40
2022-12-01T11:38:30.681Z,3.40
2022-12-01T11:40:57.907Z,3.40
2022-12-01T11:43:29.489Z,3.40
2022-12-01T11:45:57.214Z,3.50
2022-12-01T11:48:25.741Z,3.60
2022-12-01T11:51:07.232Z,3.70
2022-12-01T11:53:37.026Z,3.70
2022-12-01T11:56:12.725Z,3.60
2022-12-01T11:58:39.289Z,3.70
2022-12-01T12:01:15.241Z,3.60
2022-12-01T12:03:51.991Z,3.70
2022-12-01T12:09:07.577Z,3.80
2022-12-01T12:11:36.885Z,3.90
2022-12-01T12:14:22.463Z,3.80
2022-12-01T12:16:49.165Z,3.90
2022-12-01T12:19:15.664Z,3.80
2022-12-01T12:21:42.835Z,3.70
2022-12-01T12:24:15.445Z,3.50
2022-12-01T12:26:47.341Z,3.60
2022-12-01T12:29:22.116Z,3.60
2022-12-01T12:31:51.475Z,3.60
2022-12-01T12:34:22.301Z,3.60
2022-12-01T12:37:07.725Z,3.50
2022-12-01T12:39:52.834Z,3.70
2022-12-01T12:42:32.037Z,3.70
2022-12-01T12:45:04.526Z,3.70
2022-12-01T12:47:37.590Z,3.50
2022-12-01T12:50:16.499Z,3.70
2022-12-01T12:52:45.508Z,3.80
2022-12-01T12:55:24.745Z,3.70
2022-12-01T12:57:57.192Z,3.60
2022-12-01T13:00:25.105Z,3.60
2022-12-01T13:02:56.626Z,3.50
2022-12-01T13:05:34.033Z,3.50
2022-12-01T13:08:19.160Z,3.60
2022-12-01T13:10:52.417Z,3.70
2022-12-01T13:13:27.768Z,3.70
2022-12-01T13:15:55.528Z,3.70
2022-12-01T13:18:22.115Z,3.70
2022-12-01T13:20:49.910Z,3.80
2022-12-01T13:23:17.876Z,3.70
2022-12-01T13:25:47.824Z,3.70
2022-12-01T13:28:26.212Z,3.60
2022-12-01T13:31:06.369Z,3.60
2022-12-01T13:33:33.732Z,3.50
2022-12-01T13:36:44.538Z,3.50
2022-12-01T13:39:13.362Z,3.40
2022-12-01T13:41:40.375Z,3.50
2022-12-01T13:44:24.794Z,3.40
2022-12-01T13:47:11.705Z,3.30
2022-12-01T13:49:43.749Z,3.30
2022-12-01T13:52:19.316Z,3.20
2022-12-01T13:55:01.093Z,3.40
2022-12-01T13:57:28.966Z,3.50
2022-12-01T13:59:58.230Z,3.60
2022-12-01T14:02:26.101Z,3.50
2022-12-01T14:04:53.117Z,3.40
2022-12-01T14:07:22.573Z,3.40
2022-12-01T14:09:50.851Z,3.20
2022-12-01T14:12:22.873Z,3.10
2022-12-01T14:14:53.731Z,3.10
2022-12-01T14:17:30.775Z,3.10
2022-12-01T14:20:08.399Z,3.10
2022-12-01T14:22:38.262Z,3.10
2022-12-01T14:25:07.580Z,3.10
2022-12-01T14:27:34.090Z,3.10
2022-12-01T14:30:20.725Z,3.20
2022-12-01T14:32:47.253Z,3.20
2022-12-01T14:35:14.044Z,3.20
2022-12-01T14:37:42.466Z,3.10
2022-12-01T14:40:13.576Z,3.30
2022-12-01T14:42:59.996Z,3.20
2022-12-01T14:45:33.110Z,3.30
2022-12-01T14:48:04.195Z,3.20
2022-12-01T14:50:49.359Z,3.20
2022-12-01T14:53:23.401Z,3.10
2022-12-01T14:55:56.216Z,3.10
2022-12-01T14:58:27.765Z,3.00
2022-12-01T15:01:05.988Z,3.10
2022-12-01T15:03:34.693Z,3.00
2022-12-01T15:06:01.409Z,3.10
2022-12-01T15:09:04.175Z,3.10
2022-12-01T15:11:23.292Z,3.10
2022-12-01T15:13:56.921Z,3.10
2022-12-01T15:16:24.801Z,3.00
2022-12-01T15:18:51.700Z,2.90
2022-12-01T15:21:19.688Z,2.80
2022-12-01T15:23:52.998Z,2.80
2022-12-01T15:26:20.337Z,2.90
2022-12-01T15:28:46.894Z,2.80
2022-12-01T15:31:13.874Z,2.80
2022-12-01T15:33:47.850Z,2.90
2022-12-01T15:36:14.753Z,2.90
2022-12-01T15:38:42.822Z,2.80
2022-12-01T15:41:32.273Z,3.00
2022-12-01T15:44:01.914Z,3.00
2022-12-01T15:46:29.965Z,3.00
2022-12-01T15:49:16.042Z,3.00
2022-12-01T15:51:42.842Z,2.90
2022-12-01T15:54:16.821Z,2.90
2022-12-01T15:56:44.506Z,2.90
2022-12-01T15:59:14.094Z,2.90
2022-12-01T16:01:41.565Z,2.90
2022-12-01T16:04:16.531Z,2.90
2022-12-01T16:06:50.679Z,2.90
2022-12-01T16:09:22.439Z,2.90
2022-12-01T16:12:07.232Z,2.90
2022-12-01T16:14:34.160Z,2.70
2022-12-01T16:17:00.892Z,2.70
2022-12-01T16:19:29.005Z,2.70
2022-12-01T16:22:00.814Z,2.70
2022-12-01T16:24:38.251Z,2.60
2022-12-01T16:27:06.902Z,2.70
2022-12-01T16:29:35.922Z,2.70
2022-12-01T16:32:20.217Z,2.70
2022-12-01T16:34:47.766Z,2.90
2022-12-01T16:37:14.777Z,2.80
2022-12-01T16:39:41.413Z,2.70
2022-12-01T16:42:11.280Z,2.70
2022-12-01T16:44:37.937Z,2.60
2022-12-01T16:47:10.155Z,2.70
2022-12-01T16:49:36.677Z,2.70
2022-12-01T16:52:22.108Z,2.70
2022-12-01T16:54:50.199Z,2.50
2022-12-01T16:57:17.349Z,2.50
2022-12-01T16:59:44.197Z,2.60
2022-12-01T17:02:11.347Z,2.50
2022-12-01T17:04:38.109Z,2.50
2022-12-01T17:07:04.703Z,2.50
2022-12-01T17:09:31.479Z,2.40
2022-12-01T17:11:58.157Z,2.40
2022-12-01T17:14:25.921Z,2.60
2022-12-01T17:16:52.544Z,2.50
2022-12-01T17:19:19.192Z,2.40
2022-12-01T17:21:45.888Z,2.40
2022-12-01T17:24:17.589Z,2.40
2022-12-01T17:26:45.518Z,2.50
2022-12-01T17:29:12.059Z,2.60
2022-12-01T17:31:38.784Z,2.50
2022-12-01T17:34:05.433Z,2.50
2022-12-01T17:36:31.983Z,2.40
2022-12-01T17:38:58.801Z,2.40
2022-12-01T17:41:31.977Z,2.30
2022-12-01T17:43:58.747Z,2.30
2022-12-01T17:46:25.618Z,2.60
2022-12-01T17:48:52.257Z,2.60
2022-12-01T17:51:19.027Z,2.50
2022-12-01T17:53:45.708Z,2.60
2022-12-01T17:56:13.317Z,2.50
2022-12-01T17:58:39.987Z,2.50
2022-12-01T18:01:06.928Z,2.50
2022-12-01T18:03:33.496Z,2.50
2022-12-01T18:06:01.748Z,2.50
2022-12-01T18:08:31.007Z,2.40
2022-12-01T18:11:07.638Z,2.50
2022-12-01T18:13:41.315Z,2.50
2022-12-01T18:16:15.427Z,2.30
2022-12-01T18:18:42.334Z,2.30
2022-12-01T18:21:10.153Z,2.20
2022-12-01T18:23:37.011Z,2.20
2022-12-01T18:26:15.170Z,2.20
2022-12-01T18:28:42.584Z,2.30
2022-12-01T18:31:14.677Z,2.20
2022-12-01T18:33:42.553Z,2.30
2022-12-01T18:36:11.139Z,2.30
2022-12-01T18:38:38.077Z,2.20
2022-12-01T18:41:04.729Z,2.20
2022-12-01T18:43:32.057Z,2.20
2022-12-01T18:45:58.980Z,2.20
2022-12-01T18:48:25.934Z,2.20
2022-12-01T18:50:57.876Z,2.20
2022-12-01T18:53:25.887Z,2.20
2022-12-01T18:55:52.464Z,2.10
2022-12-01T18:58:18.983Z,2.20
2022-12-01T19:00:45.708Z,2.20
2022-12-01T19:03:12.378Z,2.20
2022-12-01T19:05:39.136Z,2.20
2022-12-01T19:08:06.264Z,2.30
2022-12-01T19:10:33.261Z,2.20
2022-12-01T19:12:59.838Z,2.10
2022-12-01T19:15:26.401Z,2.20
2022-12-01T19:17:52.948Z,2.30
2022-12-01T19:20:19.460Z,2.20
2022-12-01T19:22:45.982Z,2.20
2022-12-01T19:25:13.495Z,2.10
2022-12-01T19:27:40.337Z,2.10
2022-12-01T19:30:07.369Z,2.20
2022-12-01T19:32:34.475Z,2.00
2022-12-01T19:35:01.090Z,2.00
2022-12-01T19:37:27.701Z,1.90
2022-12-01T19:39:54.280Z,1.90
2022-12-01T19:42:20.873Z,1.90
2022-12-01T19:44:47.533Z,1.90
2022-12-01T19:47:17.794Z,2.00
2022-12-01T19:49:48.516Z,2.00
2022-12-01T19:52:15.100Z,1.90
2022-12-01T19:54:41.685Z,2.00
2022-12-01T19:57:08.320Z,2.00
2022-12-01T19:59:34.842Z,2.00
2022-12-01T20:02:01.515Z,2.00
2022-12-01T20:04:28.109Z,2.00
2022-12-01T20:06:54.645Z,2.00
2022-12-01T20:09:21.221Z,2.00
2022-12-01T20:11:47.785Z,2.00
2022-12-01T20:14:14.356Z,2.00
2022-12-01T20:16:41.004Z,2.00
2022-12-01T20:19:08.080Z,1.90
2022-12-01T20:21:36.125Z,2.00
2022-12-01T20:24:04.452Z,2.00
2022-12-01T20:26:35.444Z,1.90
2022-12-01T20:29:04.015Z,1.90
2022-12-01T20:31:31.812Z,2.00
2022-12-01T20:33:59.699Z,2.00
2022-12-01T20:36:26.927Z,2.10
2022-12-01T20:38:53.708Z,2.10
2022-12-01T20:41:20.801Z,2.10
2022-12-01T20:43:47.538Z,2.00
2022-12-01T20:46:14.356Z,1.90
2022-12-01T20:48:41.067Z,2.00
2022-12-01T20:51:08.086Z,1.90
2022-12-01T20:53:35.122Z,1.90
2022-12-01T20:56:03.042Z,1.90
2022-12-01T20:58:32.058Z,1.80
2022-12-01T21:01:16.248Z,1.90
2022-12-01T21:03:43.506Z,2.00
2022-12-01T21:06:10.787Z,2.00
2022-12-01T21:08:38.426Z,2.00
2022-12-01T21:11:06.328Z,2.00
2022-12-01T21:13:42.335Z,2.00
2022-12-01T21:16:22.431Z,2.00
2022-12-01T21:18:59.887Z,1.90
2022-12-01T21:21:27.750Z,2.00
2022-12-01T21:24:08.411Z,2.10
2022-12-01T21:26:38.887Z,2.10
2022-12-01T21:29:16.746Z,2.00
2022-12-01T21:31:43.991Z,2.10
2022-12-01T21:34:21.263Z,1.90
2022-12-01T21:36:48.879Z,1.90
2022-12-01T21:39:20.589Z,2.00
2022-12-01T21:41:51.675Z,2.10
2022-12-01T21:44:20.022Z,2.00
2022-12-01T21:46:47.766Z,2.10
2022-12-01T21:49:17.016Z,2.00
2022-12-01T21:51:43.917Z,2.00
2022-12-01T21:54:12.981Z,2.10
2022-12-01T21:56:39.663Z,2.00
2022-12-01T21:59:13.360Z,2.10
2022-12-01T22:01:40.184Z,2.10
2022-12-01T22:04:12.133Z,1.90
2022-12-01T22:06:39.939Z,2.00
2022-12-01T22:09:23.288Z,2.10
2022-12-01T22:11:54.525Z,2.00
2022-12-01T22:14:22.326Z,2.10
2022-12-01T22:16:59.260Z,2.10
2022-12-01T22:19:28.285Z,2.10
2022-12-01T22:22:00.641Z,2.00
2022-12-01T22:24:29.203Z,2.00
2022-12-01T22:26:58.755Z,2.00
2022-12-01T22:29:27.685Z,1.90
2022-12-01T22:32:12.383Z,1.90
2022-12-01T22:34:39.749Z,1.90
2022-12-01T22:37:20.111Z,1.70
2022-12-01T22:39:52.028Z,1.70
2022-12-01T22:42:21.082Z,1.70
2022-12-01T22:44:47.857Z,1.70
2022-12-01T22:47:14.651Z,1.70
2022-12-01T22:49:41.817Z,1.70
2022-12-01T22:52:26.130Z,1.70
2022-12-01T22:54:52.848Z,1.70
2022-12-01T22:57:25.805Z,1.70
2022-12-01T22:59:52.552Z,1.80
2022-12-01T23:02:21.005Z,1.70
2022-12-01T23:04:49.059Z,1.80
2022-12-01T23:07:26.109Z,1.80
2022-12-01T23:09:53.177Z,2.00
2022-12-01T23:12:28.806Z,1.90
2022-12-01T23:15:00.446Z,2.00
2022-12-01T23:17:31.246Z,1.90
2022-12-01T23:20:10.035Z,2.00
2022-12-01T23:22:37.283Z,1.80
2022-12-01T23:25:30.316Z,1.70
2022-12-01T23:28:01.147Z,1.70
2022-12-01T23:30:27.772Z,1.60
2022-12-01T23:33:02.956Z,1.60
2022-12-01T23:35:29.645Z,1.60
2022-12-01T23:37:56.206Z,1.70
2022-12-01T23:40:22.737Z,1.60
2022-12-01T23:42:49.571Z,1.70
2022-12-01T23:45:25.857Z,1.60
2022-12-01T23:47:54.362Z,1.60
2022-12-01T23:50:27.312Z,1.70
2022-12-01T23:52:53.880Z,1.70
2022-12-01T23:55:22.091Z,1.80
2022-12-01T23:57:49.871Z,1.70
